createdAt,value
2018-09-23T00:00:47.844Z,64.37
2018-09-23T00:01:47.886Z,64.09
2018-09-23T00:02:47.828Z,64.18
2018-09-23T00:03:47.880Z,64.18
2018-09-23T00:04:47.866Z,64.28
2018-09-23T00:05:47.903Z,64.18
2018-09-23T00:06:47.903Z,64.09
2018-09-23T00:07:47.921Z,64.37
2018-09-23T00:08:47.908Z,64.37
2018-09-23T00:09:47.958Z,64.66
2018-09-23T00:10:47.915Z,64.47
2018-09-23T00:11:47.920Z,64.56
2018-09-23T00:12:47.926Z,64.09
2018-09-23T00:13:47.934Z,64.18
2018-09-23T00:14:47.942Z,64.09
2018-09-23T00:15:47.960Z,63.99
2018-09-23T00:16:48.014Z,64.18
2018-09-23T00:17:47.968Z,64.18
2018-09-23T00:18:47.964Z,63.99
2018-09-23T00:19:47.999Z,63.99
2018-09-23T00:20:48.044Z,63.99
2018-09-23T00:21:48.010Z,64.18
2018-09-23T00:22:48.025Z,64.56
2018-09-23T00:23:48.059Z,64.37
2018-09-23T00:24:48.084Z,64.56
2018-09-23T00:25:48.184Z,65.23
2018-09-23T00:26:48.034Z,64.72
2018-09-23T00:27:48.055Z,64.95
2018-09-23T00:28:48.399Z,64.76
2018-09-23T00:29:48.068Z,64.76
2018-09-23T00:30:48.126Z,64.72
2018-09-23T00:31:48.124Z,64.92
2018-09-23T00:32:48.122Z,65.58
2018-09-23T00:33:48.140Z,65.11
2018-09-23T00:34:48.156Z,64.72
2018-09-23T00:35:48.125Z,65.20
2018-09-23T00:36:48.158Z,65.20
2018-09-23T00:37:48.156Z,64.82
2018-09-23T00:38:48.167Z,64.92
2018-09-23T00:39:48.222Z,65.39
2018-09-23T00:40:48.173Z,65.39
2018-09-23T00:41:48.246Z,65.20
2018-09-23T00:42:48.238Z,64.92
2018-09-23T00:43:48.218Z,65.01
2018-09-23T00:44:48.212Z,64.92
2018-09-23T00:45:48.212Z,65.58
2018-09-23T00:46:48.245Z,64.82
2018-09-23T00:47:48.255Z,65.11
2018-09-23T00:48:48.286Z,65.11
2018-09-23T00:49:48.237Z,65.01
2018-09-23T00:50:48.298Z,65.01
2018-09-23T00:51:48.266Z,64.72
2018-09-23T00:52:48.306Z,64.72
2018-09-23T00:53:48.330Z,65.11
2018-09-23T00:54:48.289Z,65.20
2018-09-23T00:55:48.301Z,64.82
2018-09-23T00:56:48.340Z,64.82
2018-09-23T00:57:48.356Z,65.01
2018-09-23T00:58:48.342Z,64.72
2018-09-23T00:59:48.361Z,64.82
2018-09-23T01:00:48.345Z,64.92
2018-09-23T01:01:48.385Z,64.82
2018-09-23T01:02:48.367Z,65.01
2018-09-23T01:03:48.374Z,64.82
2018-09-23T01:04:48.434Z,64.63
2018-09-23T01:05:48.404Z,64.92
2018-09-23T01:06:48.456Z,64.63
2018-09-23T01:07:48.395Z,65.30
2018-09-23T01:08:48.414Z,65.39
2018-09-23T01:09:48.426Z,65.11
2018-09-23T01:10:48.431Z,65.11
2018-09-23T01:11:48.466Z,65.20
2018-09-23T01:12:48.479Z,65.30
2018-09-23T01:13:48.463Z,65.78
2018-09-23T01:14:48.494Z,65.58
2018-09-23T01:15:48.463Z,65.78
2018-09-23T01:16:48.522Z,65.78
2018-09-23T01:17:48.541Z,65.88
2018-09-23T01:18:48.494Z,65.84
2018-09-23T01:19:48.504Z,65.45
2018-09-23T01:20:48.508Z,65.74
2018-09-23T01:21:48.514Z,65.65
2018-09-23T01:22:48.562Z,65.55
2018-09-23T01:23:48.559Z,65.97
2018-09-23T01:24:48.574Z,65.84
2018-09-23T01:25:48.599Z,66.16
2018-09-23T01:26:48.565Z,65.88
2018-09-23T01:27:48.566Z,65.65
2018-09-23T01:28:48.600Z,65.68
2018-09-23T01:29:48.588Z,65.55
2018-09-23T01:30:48.595Z,65.74
2018-09-23T01:31:48.622Z,65.84
2018-09-23T01:32:48.605Z,65.55
2018-09-23T01:33:48.665Z,65.45
2018-09-23T01:34:48.640Z,65.55
2018-09-23T01:35:48.643Z,65.94
2018-09-23T01:36:48.659Z,66.32
2018-09-23T01:37:48.665Z,66.22
2018-09-23T01:38:48.659Z,66.61
2018-09-23T01:39:48.721Z,66.51
2018-09-23T01:40:48.724Z,66.32
2018-09-23T01:41:48.688Z,66.51
2018-09-23T01:42:48.734Z,66.22
2018-09-23T01:43:48.736Z,66.51
2018-09-23T01:44:48.716Z,66.41
2018-09-23T01:45:48.720Z,66.41
2018-09-23T01:46:48.781Z,66.61
2018-09-23T01:47:48.753Z,66.70
2018-09-23T01:48:48.775Z,66.32
2018-09-23T01:49:48.792Z,66.32
2018-09-23T01:50:48.797Z,66.03
2018-09-23T01:51:48.775Z,66.41
2018-09-23T01:52:48.796Z,66.41
2018-09-23T01:53:48.812Z,66.32
2018-09-23T01:54:48.824Z,66.32
2018-09-23T01:55:48.826Z,66.22
2018-09-23T01:56:48.832Z,66.13
2018-09-23T01:57:48.859Z,66.22
2018-09-23T01:58:48.851Z,66.41
2018-09-23T01:59:48.852Z,66.22
2018-09-23T02:00:48.875Z,66.03
2018-09-23T02:01:48.881Z,66.13
2018-09-23T02:02:48.876Z,65.94
2018-09-23T02:03:48.886Z,66.03
2018-09-23T02:04:48.936Z,66.41
2018-09-23T02:05:48.957Z,66.61
2018-09-23T02:06:48.908Z,66.22
2018-09-23T02:07:48.913Z,66.41
2018-09-23T02:08:48.914Z,66.38
2018-09-23T02:09:48.917Z,66.86
2018-09-23T02:10:48.996Z,66.09
2018-09-23T02:11:48.993Z,66.76
2018-09-23T02:12:48.975Z,66.76
2018-09-23T02:13:48.957Z,66.86
2018-09-23T02:14:48.961Z,66.47
2018-09-23T02:15:49.002Z,66.86
2018-09-23T02:16:49.005Z,67.05
2018-09-23T02:17:48.974Z,66.96
2018-09-23T02:18:48.979Z,67.43
2018-09-23T02:19:49.060Z,67.53
2018-09-23T02:20:49.030Z,67.34
2018-09-23T02:21:49.049Z,67.43
2018-09-23T02:22:49.108Z,67.05
2018-09-23T02:23:49.070Z,67.63
2018-09-23T02:24:49.065Z,67.72
2018-09-23T02:25:49.065Z,67.63
2018-09-23T02:26:49.071Z,67.43
2018-09-23T02:27:49.078Z,67.72
2018-09-23T02:28:49.101Z,67.63
2018-09-23T02:29:49.094Z,67.34
2018-09-23T02:30:49.099Z,68.10
2018-09-23T02:31:49.104Z,67.82
2018-09-23T02:32:49.102Z,68.01
2018-09-23T02:33:49.156Z,68.01
2018-09-23T02:34:49.157Z,68.20
2018-09-23T02:35:49.133Z,67.43
2018-09-23T02:36:49.170Z,67.82
2018-09-23T02:37:49.164Z,67.34
2018-09-23T02:38:49.229Z,67.63
2018-09-23T02:39:49.207Z,67.53
2018-09-23T02:40:49.212Z,67.63
2018-09-23T02:41:49.180Z,67.63
2018-09-23T02:42:49.179Z,67.72
2018-09-23T02:43:49.301Z,68.10
2018-09-23T02:44:49.208Z,67.72
2018-09-23T02:45:49.241Z,67.72
2018-09-23T02:46:49.242Z,67.82
2018-09-23T02:47:49.233Z,68.01
2018-09-23T02:48:49.246Z,67.82
2018-09-23T02:49:49.297Z,67.72
2018-09-23T02:50:49.265Z,67.63
2018-09-23T02:51:49.290Z,67.82
2018-09-23T02:52:49.265Z,68.10
2018-09-23T02:53:49.280Z,67.91
2018-09-23T02:54:49.373Z,68.10
2018-09-23T02:55:49.291Z,67.72
2018-09-23T02:56:49.320Z,68.10
2018-09-23T02:57:49.325Z,67.82
2018-09-23T02:58:49.376Z,68.10
2018-09-23T02:59:49.355Z,67.91
2018-09-23T03:00:49.359Z,67.82
2018-09-23T03:01:49.359Z,68.10
2018-09-23T03:02:49.358Z,68.10
2018-09-23T03:03:49.377Z,67.72
2018-09-23T03:04:49.386Z,68.10
2018-09-23T03:05:49.435Z,68.10
2018-09-23T03:06:49.378Z,67.82
2018-09-23T03:07:49.395Z,67.91
2018-09-23T03:08:49.423Z,67.82
2018-09-23T03:09:49.473Z,67.63
2018-09-23T03:10:49.421Z,68.01
2018-09-23T03:11:49.420Z,67.91
2018-09-23T03:12:49.450Z,67.63
2018-09-23T03:13:49.455Z,68.10
2018-09-23T03:14:49.441Z,67.72
2018-09-23T03:15:49.459Z,67.53
2018-09-23T03:16:49.522Z,67.34
2018-09-23T03:17:49.507Z,67.63
2018-09-23T03:18:49.474Z,67.53
2018-09-23T03:19:49.539Z,67.14
2018-09-23T03:20:49.497Z,67.34
2018-09-23T03:21:49.514Z,67.63
2018-09-23T03:22:49.497Z,67.34
2018-09-23T03:23:49.558Z,67.72
2018-09-23T03:24:49.524Z,67.14
2018-09-23T03:25:50.550Z,67.24
2018-09-23T03:26:49.558Z,67.72
2018-09-23T03:27:49.577Z,67.43
2018-09-23T03:28:49.602Z,67.63
2018-09-23T03:29:49.578Z,67.72
2018-09-23T03:30:49.577Z,67.63
2018-09-23T03:31:49.626Z,67.63
2018-09-23T03:32:49.619Z,67.72
2018-09-23T03:33:49.641Z,67.72
2018-09-23T03:34:49.639Z,67.91
2018-09-23T03:35:49.674Z,67.72
2018-09-23T03:36:49.632Z,67.72
2018-09-23T03:37:49.654Z,68.10
2018-09-23T03:38:49.687Z,68.10
2018-09-23T03:39:49.678Z,67.91
2018-09-23T03:40:49.688Z,68.01
2018-09-23T03:41:49.675Z,68.01
2018-09-23T03:42:49.691Z,68.49
2018-09-23T03:43:49.693Z,67.91
2018-09-23T03:44:49.695Z,68.01
2018-09-23T03:45:49.754Z,67.91
2018-09-23T03:46:49.734Z,68.58
2018-09-23T03:47:49.741Z,68.58
2018-09-23T03:48:49.732Z,68.49
2018-09-23T03:49:49.737Z,68.49
2018-09-23T03:50:49.745Z,68.20
2018-09-23T03:51:49.765Z,68.87
2018-09-23T03:52:49.777Z,68.29
2018-09-23T03:53:49.765Z,68.39
2018-09-23T03:54:49.765Z,68.35
2018-09-23T03:55:49.821Z,68.39
2018-09-23T03:56:49.778Z,68.77
2018-09-23T03:57:49.832Z,68.58
2018-09-23T03:58:49.807Z,68.64
2018-09-23T03:59:49.840Z,68.77
2018-09-23T04:00:49.814Z,68.39
2018-09-23T04:01:49.814Z,68.64
2018-09-23T04:02:49.877Z,68.84
2018-09-23T04:03:49.845Z,69.35
2018-09-23T04:04:49.892Z,68.55
2018-09-23T04:05:49.835Z,69.21
2018-09-23T04:06:49.897Z,69.31
2018-09-23T04:07:49.888Z,69.12
2018-09-23T04:08:49.879Z,69.12
2018-09-23T04:09:49.920Z,69.50
2018-09-23T04:10:49.944Z,69.60
2018-09-23T04:11:49.914Z,69.60
2018-09-23T04:12:49.929Z,69.60
2018-09-23T04:13:49.915Z,69.50
2018-09-23T04:14:49.930Z,69.41
2018-09-23T04:15:49.924Z,69.41
2018-09-23T04:16:49.960Z,69.60
2018-09-23T04:17:49.963Z,69.50
2018-09-23T04:18:49.983Z,69.79
2018-09-23T04:19:49.976Z,69.25
2018-09-23T04:20:49.977Z,69.06
2018-09-23T04:21:50.043Z,69.41
2018-09-23T04:22:50.006Z,69.12
2018-09-23T04:23:50.073Z,69.60
2018-09-23T04:24:50.013Z,69.50
2018-09-23T04:25:50.029Z,69.21
2018-09-23T04:26:50.024Z,69.02
2018-09-23T04:27:50.057Z,69.41
2018-09-23T04:28:50.033Z,69.12
2018-09-23T04:29:50.061Z,69.15
2018-09-23T04:30:50.055Z,69.21
2018-09-23T04:31:50.118Z,69.21
2018-09-23T04:32:50.085Z,69.12
2018-09-23T04:33:50.117Z,69.21
2018-09-23T04:34:50.082Z,69.12
2018-09-23T04:35:50.103Z,69.35
2018-09-23T04:36:50.105Z,69.31
2018-09-23T04:37:50.111Z,69.15
2018-09-23T04:38:50.163Z,68.87
2018-09-23T04:39:50.178Z,69.25
2018-09-23T04:40:50.134Z,69.15
2018-09-23T04:41:50.160Z,68.68
2018-09-23T04:42:50.173Z,68.58
2018-09-23T04:43:50.182Z,68.68
2018-09-23T04:44:50.214Z,68.64
2018-09-23T04:45:50.153Z,68.68
2018-09-23T04:46:50.211Z,68.49
2018-09-23T04:47:50.171Z,68.74
2018-09-23T04:48:50.229Z,68.68
2018-09-23T04:49:50.228Z,68.58
2018-09-23T04:50:50.227Z,68.87
2018-09-23T04:51:50.256Z,68.29
2018-09-23T04:52:50.235Z,68.49
2018-09-23T04:53:50.244Z,68.58
2018-09-23T04:54:50.251Z,68.39
2018-09-23T04:55:50.258Z,68.29
2018-09-23T04:56:50.284Z,68.29
2018-09-23T04:57:50.270Z,68.96
2018-09-23T04:58:50.289Z,68.58
2018-09-23T04:59:50.283Z,67.91
2018-09-23T05:00:50.313Z,68.10
2018-09-23T05:01:50.337Z,67.91
2018-09-23T05:02:50.304Z,67.91
2018-09-23T05:03:50.324Z,68.01
2018-09-23T05:04:50.362Z,68.01
2018-09-23T05:05:50.355Z,67.91
2018-09-23T05:06:50.342Z,67.91
2018-09-23T05:07:50.342Z,68.49
2018-09-23T05:08:50.563Z,67.72
2018-09-23T05:09:50.368Z,67.72
2018-09-23T05:10:50.384Z,67.82
2018-09-23T05:11:50.389Z,68.10
2018-09-23T05:12:50.487Z,67.91
2018-09-23T05:13:50.488Z,68.29
2018-09-23T05:14:50.510Z,68.01
2018-09-23T05:15:50.439Z,67.91
2018-09-23T05:16:50.427Z,67.43
2018-09-23T05:17:50.429Z,67.43
2018-09-23T05:18:50.491Z,67.72
2018-09-23T05:19:50.456Z,67.14
2018-09-23T05:20:50.454Z,67.34
2018-09-23T05:21:50.490Z,67.72
2018-09-23T05:22:50.497Z,67.43
2018-09-23T05:23:50.565Z,67.53
2018-09-23T05:24:50.524Z,67.34
2018-09-23T05:25:50.507Z,67.34
2018-09-23T05:26:50.526Z,67.43
2018-09-23T05:27:50.524Z,67.72
2018-09-23T05:28:50.534Z,67.43
2018-09-23T05:29:50.558Z,67.66
2018-09-23T05:30:50.592Z,67.27
2018-09-23T05:31:50.549Z,67.47
2018-09-23T05:32:50.564Z,66.89
2018-09-23T05:33:50.596Z,67.37
2018-09-23T05:34:50.557Z,67.76
2018-09-23T05:35:50.591Z,67.56
2018-09-23T05:36:50.612Z,67.37
2018-09-23T05:37:50.600Z,67.08
2018-09-23T05:38:50.600Z,67.27
2018-09-23T05:39:50.611Z,67.47
2018-09-23T05:40:50.649Z,67.47
2018-09-23T05:41:50.631Z,67.37
2018-09-23T05:42:50.632Z,67.08
2018-09-23T05:43:50.703Z,67.08
2018-09-23T05:44:50.653Z,66.51
2018-09-23T05:45:50.680Z,67.56
2018-09-23T05:46:50.660Z,67.47
2018-09-23T05:47:50.681Z,67.18
2018-09-23T05:48:50.678Z,66.80
2018-09-23T05:49:50.734Z,66.70
2018-09-23T05:50:50.726Z,66.89
2018-09-23T05:51:50.729Z,66.89
2018-09-23T05:52:50.705Z,67.56
2018-09-23T05:53:50.715Z,66.89
2018-09-23T05:54:51.056Z,67.31
2018-09-23T05:55:50.866Z,67.11
2018-09-23T05:56:50.749Z,66.89
2018-09-23T05:57:50.801Z,66.83
2018-09-23T05:58:50.890Z,66.35
2018-09-23T05:59:50.798Z,66.74
2018-09-23T06:00:50.824Z,66.83
2018-09-23T06:01:50.799Z,67.02
2018-09-23T06:02:50.988Z,66.25
2018-09-23T06:03:50.807Z,66.35
2018-09-23T06:04:50.888Z,66.45
2018-09-23T06:05:50.872Z,66.54
2018-09-23T06:06:50.839Z,66.64
2018-09-23T06:07:50.858Z,66.25
2018-09-23T06:08:50.917Z,66.93
2018-09-23T06:09:50.875Z,66.45
2018-09-23T06:10:50.885Z,66.16
2018-09-23T06:11:50.926Z,66.83
2018-09-23T06:12:50.874Z,67.34
2018-09-23T06:13:51.017Z,66.67
2018-09-23T06:14:50.897Z,66.86
2018-09-23T06:15:50.945Z,66.86
2018-09-23T06:16:50.917Z,66.09
2018-09-23T06:17:50.961Z,66.48
2018-09-23T06:18:51.175Z,66.19
2018-09-23T06:19:50.933Z,66.19
2018-09-23T06:20:50.966Z,65.52
2018-09-23T06:21:50.988Z,66.00
2018-09-23T06:22:51.016Z,65.62
2018-09-23T06:23:51.074Z,65.62
2018-09-23T06:24:51.000Z,65.14
2018-09-23T06:25:51.105Z,65.33
2018-09-23T06:26:51.014Z,65.14
2018-09-23T06:27:51.032Z,65.14
2018-09-23T06:28:51.027Z,65.33
2018-09-23T06:29:51.041Z,64.95
2018-09-23T06:30:51.051Z,65.26
2018-09-23T06:31:51.094Z,65.26
2018-09-23T06:32:51.059Z,65.33
2018-09-23T06:33:51.144Z,64.79
2018-09-23T06:34:51.111Z,64.98
2018-09-23T06:35:51.122Z,64.69
2018-09-23T06:36:51.095Z,64.98
2018-09-23T06:37:51.088Z,65.08
2018-09-23T06:38:51.211Z,64.40
2018-09-23T06:39:51.156Z,64.22
2018-09-23T06:40:51.119Z,64.40
2018-09-23T06:41:51.147Z,64.69
2018-09-23T06:42:51.134Z,64.31
2018-09-23T06:43:51.209Z,64.02
2018-09-23T06:44:51.197Z,63.83
2018-09-23T06:45:51.233Z,64.22
2018-09-23T06:46:51.194Z,63.64
2018-09-23T06:47:51.215Z,63.96
2018-09-23T06:48:51.216Z,64.02
2018-09-23T06:49:51.254Z,63.64
2018-09-23T06:50:51.245Z,64.25
2018-09-23T06:51:51.242Z,63.48
2018-09-23T06:52:51.259Z,63.29
2018-09-23T06:53:51.236Z,63.38
2018-09-23T06:54:51.264Z,63.76
2018-09-23T06:55:51.325Z,63.38
2018-09-23T06:56:51.325Z,63.38
2018-09-23T06:57:51.309Z,62.59
2018-09-23T06:58:51.300Z,63.19
2018-09-23T06:59:51.303Z,62.52
2018-09-23T07:00:51.321Z,62.62
2018-09-23T07:01:51.346Z,62.13
2018-09-23T07:02:51.344Z,62.23
2018-09-23T07:03:51.369Z,62.33
2018-09-23T07:04:51.379Z,62.62
2018-09-23T07:05:51.366Z,62.04
2018-09-23T07:06:51.361Z,62.04
2018-09-23T07:07:51.390Z,61.88
2018-09-23T07:08:51.406Z,61.85
2018-09-23T07:09:51.423Z,61.98
2018-09-23T07:10:51.461Z,61.88
2018-09-23T07:11:51.424Z,61.49
2018-09-23T07:12:51.512Z,61.78
2018-09-23T07:13:51.440Z,61.78
2018-09-23T07:14:51.457Z,61.49
2018-09-23T07:15:51.480Z,61.11
2018-09-23T07:16:51.464Z,61.21
2018-09-23T07:17:51.507Z,61.69
2018-09-23T07:18:51.531Z,61.11
2018-09-23T07:19:51.547Z,61.11
2018-09-23T07:20:51.540Z,60.92
2018-09-23T07:21:51.549Z,61.11
2018-09-23T07:22:51.574Z,60.72
2018-09-23T07:23:51.690Z,61.11
2018-09-23T07:24:51.543Z,60.53
2018-09-23T07:25:51.531Z,60.44
2018-09-23T07:26:51.616Z,59.96
2018-09-23T07:27:51.681Z,59.96
2018-09-23T07:28:51.582Z,60.63
2018-09-23T07:29:51.624Z,60.25
2018-09-23T07:30:51.644Z,59.58
2018-09-23T07:31:51.816Z,59.58
2018-09-23T07:32:51.622Z,58.81
2018-09-23T07:33:51.661Z,59.48
2018-09-23T07:34:51.650Z,58.71
2018-09-23T07:35:51.639Z,59.77
2018-09-23T07:36:51.715Z,58.42
2018-09-23T07:37:51.734Z,59.38
2018-09-23T07:38:51.682Z,59.67
2018-09-23T07:39:51.804Z,59.29
2018-09-23T07:40:51.700Z,59.67
2018-09-23T07:41:51.735Z,59.96
2018-09-23T07:42:51.712Z,60.63
2018-09-23T07:43:51.751Z,60.05
2018-09-23T07:44:51.736Z,59.77
2018-09-23T07:45:51.751Z,59.58
2018-09-23T07:46:51.742Z,59.19
2018-09-23T07:47:51.760Z,59.77
2018-09-23T07:48:51.821Z,60.05
2018-09-23T07:49:51.782Z,60.28
2018-09-23T07:50:51.783Z,60.08
2018-09-23T07:51:51.810Z,60.38
2018-09-23T07:52:51.815Z,60.08
2018-09-23T07:53:51.835Z,59.89
2018-09-23T07:54:51.875Z,59.70
2018-09-23T07:55:51.891Z,59.70
2018-09-23T07:56:51.881Z,59.41
2018-09-23T07:57:51.866Z,59.32
2018-09-23T07:58:51.881Z,59.61
2018-09-23T07:59:51.933Z,59.32
2018-09-23T08:00:51.885Z,59.61
2018-09-23T08:01:51.938Z,59.80
2018-09-23T08:02:52.461Z,59.89
2018-09-23T08:03:51.905Z,60.08
2018-09-23T08:04:51.927Z,59.51
2018-09-23T08:05:51.973Z,59.32
2018-09-23T08:06:52.029Z,59.51
2018-09-23T08:07:51.958Z,59.51
2018-09-23T08:08:51.953Z,59.32
2018-09-23T08:09:51.968Z,59.41
2018-09-23T08:10:52.184Z,59.32
2018-09-23T08:11:52.008Z,59.70
2018-09-23T08:12:52.213Z,59.70
2018-09-23T08:13:52.271Z,58.67
2018-09-23T08:14:52.488Z,58.84
2018-09-23T08:15:52.033Z,58.45
2018-09-23T08:16:52.060Z,58.67
2018-09-23T08:17:52.159Z,58.67
2018-09-23T08:18:52.051Z,58.48
2018-09-23T08:19:52.225Z,58.58
2018-09-23T08:20:52.094Z,58.39
2018-09-23T08:21:52.148Z,58.48
2018-09-23T08:22:52.128Z,58.29
2018-09-23T08:23:52.303Z,58.48
2018-09-23T08:24:52.210Z,58.58
2018-09-23T08:25:52.140Z,57.90
2018-09-23T08:26:52.235Z,57.90
2018-09-23T08:27:52.167Z,57.62
2018-09-23T08:28:52.241Z,57.71
2018-09-23T08:29:52.152Z,57.71
2018-09-23T08:30:52.169Z,57.65
2018-09-23T08:31:52.238Z,58.03
2018-09-23T08:32:52.253Z,58.13
2018-09-23T08:33:52.244Z,57.45
2018-09-23T08:34:52.277Z,56.68
2018-09-23T08:35:52.401Z,57.07
2018-09-23T08:36:52.241Z,56.98
2018-09-23T08:37:52.256Z,56.49
2018-09-23T08:38:52.249Z,56.30
2018-09-23T08:39:52.338Z,56.43
2018-09-23T08:40:52.495Z,56.49
2018-09-23T08:41:52.314Z,55.91
2018-09-23T08:42:52.670Z,55.82
2018-09-23T08:43:52.314Z,55.91
2018-09-23T08:44:52.305Z,55.56
2018-09-23T08:45:52.346Z,55.66
2018-09-23T08:46:52.461Z,56.23
2018-09-23T08:47:52.603Z,55.56
2018-09-23T08:48:52.390Z,55.56
2018-09-23T08:49:52.478Z,56.43
2018-09-23T08:50:52.422Z,55.56
2018-09-23T08:51:52.457Z,55.27
2018-09-23T08:52:52.514Z,54.69
2018-09-23T08:53:52.496Z,54.77
2018-09-23T08:54:52.532Z,54.09
2018-09-23T08:55:52.490Z,54.47
2018-09-23T08:56:52.473Z,54.89
2018-09-23T08:57:52.542Z,54.77
2018-09-23T08:58:52.495Z,55.15
2018-09-23T08:59:52.514Z,54.77
2018-09-23T09:00:52.523Z,54.47
2018-09-23T09:01:52.515Z,55.05
2018-09-23T09:02:52.541Z,54.86
2018-09-23T09:03:52.570Z,54.96
2018-09-23T09:04:52.591Z,55.18
2018-09-23T09:05:52.539Z,54.69
2018-09-23T09:06:52.799Z,54.89
2018-09-23T09:07:52.597Z,54.69
2018-09-23T09:08:52.593Z,54.31
2018-09-23T09:09:52.595Z,54.89
2018-09-23T09:10:52.588Z,54.69
2018-09-23T09:11:52.699Z,54.12
2018-09-23T09:12:52.654Z,54.22
2018-09-23T09:13:52.627Z,54.02
2018-09-23T09:14:52.653Z,53.64
2018-09-23T09:15:52.713Z,54.41
2018-09-23T09:16:52.660Z,54.12
2018-09-23T09:17:52.702Z,54.69
2018-09-23T09:18:52.969Z,54.02
2018-09-23T09:19:52.694Z,53.16
2018-09-23T09:20:52.696Z,52.87
2018-09-23T09:21:52.755Z,53.74
2018-09-23T09:22:52.703Z,54.50
2018-09-23T09:23:52.745Z,53.25
2018-09-23T09:24:52.830Z,52.77
2018-09-23T09:25:52.790Z,53.06
2018-09-23T09:26:52.805Z,53.54
2018-09-23T09:27:52.780Z,53.45
2018-09-23T09:28:52.810Z,53.74
2018-09-23T09:29:52.842Z,54.12
2018-09-23T09:30:52.966Z,53.66
2018-09-23T09:31:52.816Z,52.68
2018-09-23T09:32:52.825Z,53.25
2018-09-23T09:33:52.844Z,53.19
2018-09-23T09:34:52.885Z,53.57
2018-09-23T09:35:53.124Z,53.57
2018-09-23T09:36:52.888Z,53.19
2018-09-23T09:37:53.082Z,53.09
2018-09-23T09:38:52.885Z,53.57
2018-09-23T09:39:52.917Z,52.80
2018-09-23T09:40:52.911Z,52.89
2018-09-23T09:41:52.957Z,52.51
2018-09-23T09:42:52.967Z,52.80
2018-09-23T09:43:52.956Z,52.89
2018-09-23T09:44:52.988Z,52.89
2018-09-23T09:45:52.949Z,52.61
2018-09-23T09:46:52.966Z,51.74
2018-09-23T09:47:52.986Z,51.26
2018-09-23T09:48:53.005Z,51.84
2018-09-23T09:49:53.047Z,51.17
2018-09-23T09:50:53.232Z,50.40
2018-09-23T09:51:53.026Z,50.68
2018-09-23T09:52:53.056Z,50.78
2018-09-23T09:53:53.082Z,51.45
2018-09-23T09:54:53.070Z,51.55
2018-09-23T09:55:53.142Z,51.45
2018-09-23T09:56:53.092Z,51.55
2018-09-23T09:57:53.143Z,51.17
2018-09-23T09:58:53.148Z,50.78
2018-09-23T09:59:53.192Z,50.59
2018-09-23T10:00:53.150Z,50.10
2018-09-23T10:01:53.183Z,49.91
2018-09-23T10:02:53.219Z,49.94
2018-09-23T10:03:53.409Z,50.61
2018-09-23T10:04:54.099Z,50.61
2018-09-23T10:05:53.175Z,50.51
2018-09-23T10:06:53.209Z,50.13
2018-09-23T10:07:53.207Z,49.46
2018-09-23T10:08:53.598Z,50.13
2018-09-23T10:09:53.248Z,50.61
2018-09-23T10:10:53.266Z,49.74
2018-09-23T10:11:53.265Z,49.36
2018-09-23T10:12:53.311Z,48.88
2018-09-23T10:13:53.296Z,49.17
2018-09-23T10:14:53.310Z,48.97
2018-09-23T10:15:53.308Z,49.27
2018-09-23T10:16:53.319Z,49.19
2018-09-23T10:17:53.354Z,48.88
2018-09-23T10:18:53.950Z,49.38
2018-09-23T10:19:53.349Z,48.52
2018-09-23T10:20:53.367Z,47.56
2018-09-23T10:21:53.371Z,46.88
2018-09-23T10:22:53.868Z,46.88
2018-09-23T10:23:53.413Z,47.08
2018-09-23T10:24:53.438Z,47.46
2018-09-23T10:25:53.431Z,47.46
2018-09-23T10:26:53.447Z,46.98
2018-09-23T10:27:53.432Z,47.08
2018-09-23T10:28:53.469Z,47.29
2018-09-23T10:29:53.453Z,47.17
2018-09-23T10:30:53.649Z,47.56
2018-09-23T10:31:53.577Z,47.39
2018-09-23T10:32:53.480Z,47.77
2018-09-23T10:33:53.541Z,47.00
2018-09-23T10:34:53.533Z,47.10
2018-09-23T10:35:53.608Z,46.81
2018-09-23T10:36:53.583Z,47.97
2018-09-23T10:37:53.534Z,47.39
2018-09-23T10:38:53.603Z,46.91
2018-09-23T10:39:53.565Z,47.49
2018-09-23T10:40:53.582Z,47.49
2018-09-23T10:41:53.601Z,47.49
2018-09-23T10:42:53.657Z,47.49
2018-09-23T10:43:53.631Z,47.58
2018-09-23T10:44:53.650Z,47.19
2018-09-23T10:45:53.735Z,47.77
2018-09-23T10:46:53.673Z,47.80
2018-09-23T10:47:53.667Z,47.31
2018-09-23T10:48:53.696Z,46.64
2018-09-23T10:49:53.675Z,45.68
2018-09-23T10:50:53.690Z,46.25
2018-09-23T10:51:53.751Z,46.55
2018-09-23T10:52:53.738Z,46.73
2018-09-23T10:53:53.764Z,46.83
2018-09-23T10:54:53.750Z,46.55
2018-09-23T10:55:53.828Z,46.55
2018-09-23T10:56:53.758Z,46.64
2018-09-23T10:57:53.787Z,46.25
2018-09-23T10:58:53.805Z,46.93
2018-09-23T10:59:53.800Z,47.12
2018-09-23T11:00:53.947Z,47.80
2018-09-23T11:01:53.851Z,47.12
2018-09-23T11:02:53.978Z,46.45
2018-09-23T11:03:54.044Z,46.64
2018-09-23T11:04:53.876Z,47.31
2018-09-23T11:05:53.848Z,46.55
2018-09-23T11:06:53.942Z,46.15
2018-09-23T11:07:53.900Z,46.83
2018-09-23T11:08:54.573Z,46.55
2018-09-23T11:09:53.971Z,46.06
2018-09-23T11:10:53.916Z,45.97
2018-09-23T11:11:53.986Z,45.77
2018-09-23T11:12:53.969Z,45.68
2018-09-23T11:13:55.429Z,45.97
2018-09-23T11:14:53.982Z,46.25
2018-09-23T11:15:53.993Z,46.06
2018-09-23T11:16:54.000Z,46.15
2018-09-23T11:17:54.145Z,46.45
2018-09-23T11:18:54.064Z,46.55
2018-09-23T11:19:54.033Z,46.91
2018-09-23T11:20:54.078Z,47.19
2018-09-23T11:21:54.100Z,47.60
2018-09-23T11:22:54.115Z,47.87
2018-09-23T11:23:54.334Z,47.67
2018-09-23T11:24:54.178Z,47.39
2018-09-23T11:25:54.076Z,47.19
2018-09-23T11:26:54.136Z,47.29
2018-09-23T11:27:54.158Z,47.10
2018-09-23T11:28:54.232Z,47.39
2018-09-23T11:29:55.071Z,47.10
2018-09-23T11:30:54.146Z,47.39
2018-09-23T11:31:54.165Z,47.67
2018-09-23T11:32:54.207Z,47.49
2018-09-23T11:33:54.190Z,48.35
2018-09-23T11:34:54.185Z,48.44
2018-09-23T11:35:54.247Z,49.22
2018-09-23T11:36:54.255Z,49.60
2018-09-23T11:37:54.309Z,49.99
2018-09-23T11:38:54.301Z,49.79
2018-09-23T11:39:54.446Z,50.66
2018-09-23T11:40:54.346Z,51.14
2018-09-23T11:41:55.171Z,50.95
2018-09-23T11:42:54.370Z,50.76
2018-09-23T11:43:54.316Z,50.45
2018-09-23T11:44:54.389Z,50.76
2018-09-23T11:45:54.336Z,51.02
2018-09-23T11:46:54.351Z,50.54
2018-09-23T11:47:54.328Z,50.54
2018-09-23T11:48:54.338Z,50.93
2018-09-23T11:49:54.372Z,51.89
2018-09-23T11:50:54.439Z,51.98
2018-09-23T11:51:54.396Z,52.66
2018-09-23T11:52:55.275Z,52.66
2018-09-23T11:53:54.458Z,52.56
2018-09-23T11:54:54.428Z,52.66
2018-09-23T11:55:54.473Z,52.47
2018-09-23T11:56:54.455Z,53.05
2018-09-23T11:57:54.505Z,53.72
2018-09-23T11:58:54.505Z,54.68
2018-09-23T11:59:54.645Z,54.30
2018-09-23T12:00:54.482Z,54.94
2018-09-23T12:01:54.636Z,54.87
2018-09-23T12:02:54.507Z,54.65
2018-09-23T12:03:54.487Z,55.13
2018-09-23T12:04:54.524Z,55.04
2018-09-23T12:05:54.545Z,55.62
2018-09-23T12:06:54.555Z,55.71
2018-09-23T12:07:54.657Z,56.38
2018-09-23T12:08:54.684Z,56.48
2018-09-23T12:09:54.636Z,56.10
2018-09-23T12:10:54.656Z,56.29
2018-09-23T12:11:54.608Z,56.00
2018-09-23T12:12:54.639Z,56.29
2018-09-23T12:13:54.639Z,56.96
2018-09-23T12:14:54.692Z,56.96
2018-09-23T12:15:54.734Z,56.77
2018-09-23T12:16:54.621Z,55.90
2018-09-23T12:17:54.690Z,56.00
2018-09-23T12:18:54.670Z,57.15
2018-09-23T12:19:54.773Z,57.13
2018-09-23T12:20:54.696Z,57.13
2018-09-23T12:21:54.704Z,57.92
2018-09-23T12:22:54.710Z,58.60
2018-09-23T12:23:54.753Z,58.60
2018-09-23T12:24:54.732Z,57.92
2018-09-23T12:25:54.756Z,56.93
2018-09-23T12:26:54.841Z,57.32
2018-09-23T12:27:54.740Z,56.84
2018-09-23T12:28:54.755Z,54.14
2018-09-23T12:29:54.768Z,55.68
2018-09-23T12:30:54.798Z,56.36
2018-09-23T12:31:54.810Z,57.13
2018-09-23T12:32:54.871Z,57.03
2018-09-23T12:33:54.817Z,55.98
2018-09-23T12:34:54.846Z,56.52
2018-09-23T12:35:54.840Z,56.71
2018-09-23T12:36:54.840Z,57.48
2018-09-23T12:37:54.896Z,56.91
2018-09-23T12:38:54.893Z,58.35
2018-09-23T12:39:54.918Z,59.12
2018-09-23T12:40:54.893Z,58.73
2018-09-23T12:41:54.919Z,58.45
2018-09-23T12:42:54.906Z,58.83
2018-09-23T12:43:54.993Z,58.64
2018-09-23T12:44:54.926Z,58.64
2018-09-23T12:45:55.082Z,57.17
2018-09-23T12:46:54.969Z,56.68
2018-09-23T12:47:54.960Z,58.42
2018-09-23T12:48:55.020Z,58.80
2018-09-23T12:49:54.967Z,58.89
2018-09-23T12:50:55.036Z,57.36
2018-09-23T12:51:54.996Z,56.76
2018-09-23T12:52:55.045Z,57.43